ココス (キーリング) 諸島 の空港の天気 - METARとTAF

ココス島国際空港 ( YPCC / CCK ) - ココス諸島 ココス (キーリング) 諸島
飛行場実況気象(Metar)
観測時間02/17 21:00 CCT (02/17 14:30 UTC)
風向・風速南東 6m/s
視程10km以上
天気現象
全天の4割程度の雲 雲底高度 490m
全天の4割程度の雲 雲底高度 640m
全天の8割程度の雲 雲底高度 910m
気温28℃
湿度79%
気圧1013hPa
METARYPCC 171430Z AUTO 13011KT 9999 // SCT016 SCT021 BKN030 28/24 Q1013
過去の天気等 Google飛行場航空写真 Wunderground天気予報

過去48時間のMETAR

飛行場予報(TAF)
発表時間: 2/17 17:01 CCT (2/17 10:31 UTC)
予報対象時間: 17日18時 CCT ~ 18日18時 CCT
風向・風速東南東 5m/s
視程10km以上
天気現象弱いしゅう雨
全天の4割程度の雲 雲底高度 760m
TAF YPCC 171031Z 1712/1812 12010KT 9999 -SHRA SCT025 INTER 1712/1812 2000 SHRA BKN005